createdAt,value
2018-02-21T00:00:39.041Z,48.67
2018-02-21T00:03:05.343Z,48.33
2018-02-21T00:05:31.629Z,47.50
2018-02-21T00:07:57.986Z,44.97
2018-02-21T00:10:24.271Z,46.83
2018-02-21T00:12:50.868Z,42.07
2018-02-21T00:15:17.911Z,49.40
2018-02-21T00:17:44.172Z,48.23
2018-02-21T00:20:10.518Z,49.23
2018-02-21T00:22:37.587Z,47.27
2018-02-21T00:25:03.840Z,47.43
2018-02-21T00:27:30.123Z,50.60
2018-02-21T00:29:56.405Z,50.33
2018-02-21T00:32:23.442Z,49.23
2018-02-21T00:34:50.439Z,52.23
2018-02-21T00:37:16.758Z,47.17
2018-02-21T00:39:45.027Z,51.67
2018-02-21T00:42:11.307Z,52.70
2018-02-21T00:44:37.621Z,52.27
2018-02-21T00:47:03.884Z,51.77
2018-02-21T00:49:30.911Z,58.77
2018-02-21T00:51:57.948Z,52.73
2018-02-21T00:54:24.964Z,52.73
2018-02-21T00:56:51.222Z,54.87
2018-02-21T00:59:17.539Z,53.30
2018-02-21T01:01:43.815Z,53.60
2018-02-21T01:04:10.099Z,58.17
2018-02-21T01:06:36.390Z,54.70
2018-02-21T01:09:02.736Z,55.87
2018-02-21T01:11:29.004Z,58.33
2018-02-21T01:13:55.316Z,57.70
2018-02-21T01:16:21.676Z,57.33
2018-02-21T01:18:48.005Z,56.40
2018-02-21T01:21:14.294Z,53.50
2018-02-21T01:23:40.590Z,55.73
2018-02-21T01:26:06.877Z,55.20
2018-02-21T01:28:33.149Z,55.10
2018-02-21T01:30:59.470Z,50.83
2018-02-21T01:33:25.733Z,54.80
2018-02-21T01:35:52.754Z,55.03
2018-02-21T01:38:19.790Z,54.43
2018-02-21T01:40:46.803Z,50.60
2018-02-21T01:43:13.085Z,52.73
2018-02-21T01:45:39.343Z,49.67
2018-02-21T01:48:05.610Z,50.50
2018-02-21T01:50:44.308Z,52.37
2018-02-21T01:53:11.298Z,50.47
2018-02-21T01:55:38.354Z,47.27
2018-02-21T01:58:04.623Z,48.77
2018-02-21T02:00:30.900Z,52.40
2018-02-21T02:02:57.182Z,50.10
2018-02-21T02:05:24.184Z,46.90
2018-02-21T02:07:50.467Z,49.40
2018-02-21T02:10:16.722Z,49.63
2018-02-21T02:12:43.019Z,47.90
2018-02-21T02:15:09.324Z,51.13
2018-02-21T02:17:35.592Z,49.27
2018-02-21T02:20:02.690Z,48.63
2018-02-21T02:22:28.948Z,49.67
2018-02-21T02:24:55.294Z,50.70
2018-02-21T02:27:21.604Z,48.33
2018-02-21T02:29:47.890Z,49.50
2018-02-21T02:32:14.930Z,50.23
2018-02-21T02:34:41.940Z,48.97
2018-02-21T02:37:08.195Z,52.23
2018-02-21T02:39:46.684Z,53.13
2018-02-21T02:42:12.958Z,51.27
2018-02-21T02:44:39.253Z,52.43
2018-02-21T02:47:06.224Z,55.73
2018-02-21T02:49:32.500Z,50.50
2018-02-21T02:51:58.798Z,51.93
2018-02-21T02:54:25.063Z,52.97
2018-02-21T02:56:52.093Z,54.43
2018-02-21T02:59:18.361Z,53.00
2018-02-21T03:01:44.640Z,55.80
2018-02-21T03:04:11.742Z,56.70
2018-02-21T03:06:38.017Z,58.53
2018-02-21T03:09:04.322Z,58.40
2018-02-21T03:11:30.587Z,59.30
2018-02-21T03:13:56.850Z,60.43
2018-02-21T03:16:23.199Z,61.63
2018-02-21T03:18:49.478Z,59.03
2018-02-21T03:21:15.759Z,61.83
2018-02-21T03:23:42.014Z,62.30
2018-02-21T03:26:08.307Z,64.63
2018-02-21T03:28:35.389Z,62.90
2018-02-21T03:31:01.667Z,65.70
2018-02-21T03:33:27.972Z,66.00
2018-02-21T03:35:54.979Z,65.13
2018-02-21T03:38:21.282Z,63.80
2018-02-21T03:40:47.538Z,68.03
2018-02-21T03:43:14.557Z,66.13
2018-02-21T03:45:41.645Z,63.23
2018-02-21T03:48:07.903Z,64.80
2018-02-21T03:50:34.195Z,66.20
2018-02-21T03:53:00.467Z,63.47
2018-02-21T03:55:26.770Z,63.33
2018-02-21T03:57:53.059Z,73.33
2018-02-21T04:00:19.339Z,63.37
2018-02-21T04:02:45.673Z,64.17
2018-02-21T04:05:11.935Z,58.13
2018-02-21T04:07:38.247Z,64.53
2018-02-21T04:10:04.562Z,61.83
2018-02-21T04:12:30.991Z,60.47
2018-02-21T04:14:57.286Z,62.10
2018-02-21T04:17:24.295Z,59.97
2018-02-21T04:19:50.666Z,59.83
2018-02-21T04:22:17.166Z,58.27
2018-02-21T04:24:43.455Z,62.20
2018-02-21T04:27:09.809Z,57.80
2018-02-21T04:29:36.073Z,59.77
2018-02-21T04:32:02.325Z,60.37
2018-02-21T04:34:28.598Z,58.63
2018-02-21T04:36:54.865Z,55.70
2018-02-21T04:39:21.158Z,59.63
2018-02-21T04:41:48.179Z,58.57
2018-02-21T04:44:14.550Z,58.07
2018-02-21T04:46:40.857Z,57.93
2018-02-21T04:49:07.118Z,57.30
2018-02-21T04:51:55.144Z,57.53
2018-02-21T04:57:38.389Z,56.33
2018-02-21T05:00:07.331Z,55.67
2018-02-21T05:02:33.626Z,55.20
2018-02-21T05:04:59.947Z,56.57
2018-02-21T05:07:26.213Z,55.43
2018-02-21T05:09:52.511Z,56.03
2018-02-21T05:12:19.574Z,56.07
2018-02-21T05:14:45.845Z,56.50
2018-02-21T05:17:12.151Z,54.63
2018-02-21T05:19:38.414Z,55.70
2018-02-21T05:22:04.726Z,52.77
2018-02-21T05:24:31.035Z,56.83
2018-02-21T05:26:58.074Z,56.60
2018-02-21T05:29:24.714Z,57.80
2018-02-21T05:31:50.977Z,58.33
2018-02-21T05:34:17.274Z,57.13
2018-02-21T05:36:43.545Z,56.63
2018-02-21T05:39:09.849Z,54.33
2018-02-21T05:41:36.891Z,53.10
2018-02-21T05:44:03.146Z,54.20
2018-02-21T05:46:29.555Z,54.87
2018-02-21T05:48:55.826Z,53.80
2018-02-21T05:51:22.850Z,55.80
2018-02-21T05:53:49.898Z,50.90
2018-02-21T05:56:16.171Z,54.97
2018-02-21T05:58:42.495Z,56.50
2018-02-21T06:01:08.803Z,58.20
2018-02-21T06:03:35.076Z,61.20
2018-02-21T06:06:01.371Z,57.73
2018-02-21T06:08:27.637Z,57.13
2018-02-21T06:10:53.973Z,58.73
2018-02-21T06:13:20.227Z,61.13
2018-02-21T06:15:46.521Z,57.33
2018-02-21T06:18:13.557Z,53.10
2018-02-21T06:20:39.850Z,57.07
2018-02-21T06:23:06.130Z,58.77
2018-02-21T06:25:32.401Z,58.00
2018-02-21T06:27:59.476Z,60.60
2018-02-21T06:30:25.813Z,60.73
2018-02-21T06:32:52.091Z,56.73
2018-02-21T06:35:18.389Z,57.53
2018-02-21T06:37:44.691Z,55.17
2018-02-21T06:40:11.706Z,58.13
2018-02-21T06:42:38.019Z,58.47
2018-02-21T06:45:04.296Z,59.50
2018-02-21T06:47:30.589Z,56.27
2018-02-21T06:49:56.867Z,58.30
2018-02-21T06:52:23.522Z,57.63
2018-02-21T06:54:49.858Z,55.53
2018-02-21T06:57:16.938Z,57.87
2018-02-21T06:59:47.826Z,57.10
2018-02-21T07:02:26.547Z,57.40
2018-02-21T07:04:52.836Z,59.83
2018-02-21T07:07:19.138Z,55.90
2018-02-21T07:09:45.400Z,54.23
2018-02-21T07:12:11.706Z,53.27
2018-02-21T07:14:53.119Z,55.67
2018-02-21T07:17:21.841Z,56.87
2018-02-21T07:19:48.122Z,57.47
2018-02-21T07:22:14.382Z,50.47
2018-02-21T07:24:40.697Z,53.00
2018-02-21T07:27:06.967Z,54.50
2018-02-21T07:29:33.286Z,54.90
2018-02-21T07:31:59.561Z,51.10
2018-02-21T07:34:25.831Z,52.90
2018-02-21T07:36:52.134Z,51.53
2018-02-21T07:39:18.423Z,52.00
2018-02-21T07:41:44.718Z,54.00
2018-02-21T07:44:11.046Z,51.87
2018-02-21T07:46:37.269Z,51.43
2018-02-21T07:49:04.344Z,50.30
2018-02-21T07:51:31.336Z,50.47
2018-02-21T07:53:58.353Z,48.17
2018-02-21T07:56:24.647Z,51.30
2018-02-21T07:58:50.918Z,50.70
2018-02-21T08:01:17.175Z,49.60
2018-02-21T08:03:43.471Z,48.07
2018-02-21T08:06:09.751Z,45.53
2018-02-21T08:08:36.779Z,49.47
2018-02-21T08:11:03.828Z,46.50
2018-02-21T08:13:30.094Z,45.03
2018-02-21T08:15:56.411Z,46.33
2018-02-21T08:18:22.689Z,46.50
2018-02-21T08:20:49.021Z,47.23
2018-02-21T08:23:16.008Z,44.57
2018-02-21T08:25:43.015Z,45.30
2018-02-21T08:28:09.346Z,41.93
2018-02-21T08:30:35.640Z,44.40
2018-02-21T08:33:01.934Z,44.50
2018-02-21T08:35:28.238Z,42.80
2018-02-21T08:37:54.511Z,43.57
2018-02-21T08:40:21.562Z,43.97
2018-02-21T08:42:47.845Z,44.23
2018-02-21T08:45:14.287Z,45.30
2018-02-21T08:47:41.326Z,44.43
2018-02-21T08:50:07.601Z,44.37
2018-02-21T08:52:33.914Z,44.83
2018-02-21T08:55:00.209Z,43.27
2018-02-21T08:57:26.475Z,42.83
2018-02-21T08:59:53.510Z,44.30
2018-02-21T09:02:20.561Z,43.17
2018-02-21T09:04:46.882Z,41.87
2018-02-21T09:07:13.153Z,41.97
2018-02-21T09:09:39.422Z,42.07
2018-02-21T09:12:05.709Z,41.00
2018-02-21T09:14:32.720Z,42.23
2018-02-21T09:16:59.792Z,39.50
2018-02-21T09:19:26.069Z,40.63
2018-02-21T09:21:52.389Z,42.03
2018-02-21T09:24:18.678Z,40.93
2018-02-21T09:26:44.959Z,41.33
2018-02-21T09:29:11.333Z,37.67
2018-02-21T09:31:37.614Z,41.47
2018-02-21T09:34:03.882Z,39.10
2018-02-21T09:36:30.181Z,39.97
2018-02-21T09:38:57.185Z,39.33
2018-02-21T09:41:23.473Z,40.43
2018-02-21T09:43:49.741Z,40.40
2018-02-21T09:46:16.022Z,41.00
2018-02-21T09:48:42.307Z,41.27
2018-02-21T09:51:08.569Z,41.20
2018-02-21T09:53:34.886Z,38.80
2018-02-21T09:56:01.162Z,36.90
2018-02-21T09:58:27.425Z,38.23
2018-02-21T10:00:53.774Z,39.00
2018-02-21T10:03:20.044Z,37.20
2018-02-21T10:05:46.341Z,36.50
2018-02-21T10:08:12.601Z,34.27
2018-02-21T10:10:39.615Z,36.27
2018-02-21T10:13:05.906Z,35.13
2018-02-21T10:15:32.257Z,35.27
2018-02-21T10:17:58.547Z,36.83
2018-02-21T10:20:24.850Z,34.67
2018-02-21T10:22:51.127Z,35.70
2018-02-21T10:25:17.408Z,33.80
2018-02-21T10:27:43.705Z,32.53
2018-02-21T10:30:09.999Z,35.97
2018-02-21T10:32:36.323Z,34.57
2018-02-21T10:35:02.630Z,33.10
2018-02-21T10:37:28.918Z,34.80
2018-02-21T10:39:55.211Z,34.07
2018-02-21T10:42:22.250Z,33.23
2018-02-21T10:44:49.279Z,32.70
2018-02-21T10:47:16.317Z,33.27
2018-02-21T10:49:43.373Z,32.13
2018-02-21T10:52:09.654Z,33.20
2018-02-21T10:54:35.966Z,31.10
2018-02-21T10:57:02.250Z,31.20
2018-02-21T10:59:28.506Z,32.43
2018-02-21T11:01:55.578Z,31.83
2018-02-21T11:04:21.858Z,31.23
2018-02-21T11:06:48.895Z,30.93
2018-02-21T11:09:15.895Z,28.83
2018-02-21T11:11:42.164Z,29.17
2018-02-21T11:14:08.450Z,30.53
2018-02-21T11:16:35.467Z,31.00
2018-02-21T11:19:01.772Z,30.50
2018-02-21T11:21:28.042Z,32.78
2018-02-21T11:23:54.325Z,34.50
2018-02-21T11:26:21.408Z,33.80
2018-02-21T11:28:47.735Z,30.95
2018-02-21T11:31:14.054Z,31.50
2018-02-21T11:33:40.345Z,31.27
2018-02-21T11:36:06.607Z,30.37
2018-02-21T11:38:32.930Z,30.33
2018-02-21T11:40:59.946Z,30.05
2018-02-21T11:43:26.270Z,29.02
2018-02-21T11:45:52.617Z,28.10
2018-02-21T11:48:18.891Z,31.07
2018-02-21T11:50:45.213Z,29.33
2018-02-21T11:53:11.620Z,30.20
2018-02-21T11:55:37.926Z,30.50
2018-02-21T11:58:04.229Z,29.17
2018-02-21T12:00:30.508Z,28.58
2018-02-21T12:02:57.530Z,29.35
2018-02-21T12:05:24.589Z,34.42
2018-02-21T12:07:50.879Z,29.60
2018-02-21T12:10:17.948Z,29.50
2018-02-21T12:12:44.226Z,31.95
2018-02-21T12:15:11.241Z,31.80
2018-02-21T12:17:37.526Z,31.58
2018-02-21T12:20:03.815Z,29.35
2018-02-21T12:22:30.143Z,29.48
2018-02-21T12:24:56.446Z,31.35
2018-02-21T12:27:22.713Z,29.30
2018-02-21T12:29:49.015Z,31.40
2018-02-21T12:32:17.214Z,32.30
2018-02-21T12:34:44.303Z,28.50
2018-02-21T12:37:10.598Z,30.37
2018-02-21T12:39:36.870Z,28.73
2018-02-21T12:42:03.202Z,30.63
2018-02-21T12:44:30.217Z,27.27
2018-02-21T12:46:56.534Z,30.07
2018-02-21T12:49:22.806Z,28.83
2018-02-21T12:51:49.098Z,29.63
2018-02-21T12:54:15.381Z,28.33
2018-02-21T12:56:41.642Z,28.70
2018-02-21T12:59:07.930Z,26.93
2018-02-21T13:01:34.223Z,26.73
2018-02-21T13:04:00.474Z,27.47
2018-02-21T13:06:26.859Z,28.07
2018-02-21T13:08:53.125Z,26.90
2018-02-21T13:11:19.426Z,25.17
2018-02-21T13:13:45.698Z,25.57
2018-02-21T13:16:11.983Z,24.60
2018-02-21T13:18:38.299Z,26.17
2018-02-21T13:21:04.575Z,26.07
2018-02-21T13:23:30.880Z,26.27
2018-02-21T13:25:57.897Z,25.17
2018-02-21T13:28:25.105Z,24.53
2018-02-21T13:30:51.411Z,23.42
2018-02-21T13:33:17.721Z,23.55
2018-02-21T13:35:44.058Z,24.55
2018-02-21T13:38:10.351Z,22.33
2018-02-21T13:40:36.624Z,21.90
2018-02-21T13:43:03.945Z,22.48
2018-02-21T13:45:30.206Z,23.45
2018-02-21T13:47:56.485Z,23.15
2018-02-21T13:50:23.489Z,22.10
2018-02-21T13:52:49.758Z,23.48
2018-02-21T13:55:16.063Z,22.05
2018-02-21T13:57:43.266Z,23.02
2018-02-21T14:00:10.031Z,20.80
2018-02-21T14:02:36.379Z,21.98
2018-02-21T14:05:02.750Z,23.80
2018-02-21T14:07:29.789Z,20.80
2018-02-21T14:09:56.893Z,22.13
2018-02-21T14:12:23.190Z,22.98
2018-02-21T14:14:49.511Z,22.33
2018-02-21T14:17:15.787Z,22.42
2018-02-21T14:19:42.081Z,20.77
2018-02-21T14:22:09.099Z,22.50
2018-02-21T14:24:36.388Z,21.67
2018-02-21T14:27:02.719Z,21.50
2018-02-21T14:29:29.053Z,19.80
2018-02-21T14:31:55.345Z,22.00
2018-02-21T14:34:21.670Z,21.87
2018-02-21T14:36:47.977Z,21.23
2018-02-21T14:39:14.428Z,21.00
2018-02-21T14:41:40.730Z,21.17
2018-02-21T14:44:07.818Z,20.13
2018-02-21T14:46:34.943Z,20.97
2018-02-21T14:49:02.492Z,21.50
2018-02-21T14:51:28.806Z,20.60
2018-02-21T14:53:55.133Z,22.53
2018-02-21T14:56:21.455Z,21.50
2018-02-21T14:58:47.822Z,21.07
2018-02-21T15:01:14.266Z,21.23
2018-02-21T15:03:41.290Z,20.37
2018-02-21T15:06:08.320Z,21.47
2018-02-21T15:08:34.667Z,22.60
2018-02-21T15:11:01.266Z,22.93
2018-02-21T15:13:27.850Z,38.93
2018-02-21T15:15:54.138Z,22.37
2018-02-21T15:18:20.422Z,21.80
2018-02-21T15:20:47.457Z,21.47
2018-02-21T15:23:14.649Z,20.67
2018-02-21T15:25:41.568Z,20.13
2018-02-21T15:28:08.621Z,21.17
2018-02-21T15:30:35.154Z,21.30
2018-02-21T15:33:01.506Z,20.87
2018-02-21T15:35:27.778Z,20.13
2018-02-21T15:37:54.182Z,19.83
2018-02-21T15:40:20.517Z,21.27
2018-02-21T15:42:46.906Z,19.57
2018-02-21T15:45:13.260Z,19.60
2018-02-21T15:47:39.538Z,18.17
2018-02-21T15:50:05.846Z,20.47
2018-02-21T15:52:32.168Z,20.07
2018-02-21T15:54:58.469Z,18.93
2018-02-21T15:57:24.783Z,18.50
2018-02-21T15:59:51.813Z,19.10
2018-02-21T16:02:18.096Z,18.87
2018-02-21T16:04:45.135Z,19.13
2018-02-21T16:07:12.224Z,18.73
2018-02-21T16:09:38.506Z,19.30
2018-02-21T16:12:04.867Z,18.37
2018-02-21T16:14:31.152Z,19.73
2018-02-21T16:16:57.428Z,20.30
2018-02-21T16:19:24.472Z,25.23
2018-02-21T16:21:50.757Z,22.10
2018-02-21T16:24:17.198Z,23.10
2018-02-21T16:26:44.242Z,23.43
2018-02-21T16:29:10.519Z,21.47
2018-02-21T16:31:36.864Z,20.73
2018-02-21T16:34:03.142Z,19.87
2018-02-21T16:36:29.446Z,24.37
2018-02-21T16:38:55.847Z,22.37
2018-02-21T16:41:22.181Z,20.20
2018-02-21T16:43:48.486Z,18.87
2018-02-21T16:46:14.879Z,19.50
2018-02-21T16:48:41.246Z,18.87
2018-02-21T16:51:07.517Z,17.13
2018-02-21T16:53:33.850Z,16.77
2018-02-21T16:56:00.205Z,16.87
2018-02-21T16:58:26.530Z,16.70
2018-02-21T17:00:53.594Z,16.40
2018-02-21T17:03:19.866Z,16.43
2018-02-21T17:05:46.141Z,15.33
2018-02-21T17:08:12.501Z,15.17
2018-02-21T17:10:38.989Z,14.53
2018-02-21T17:13:05.299Z,15.30
2018-02-21T17:15:31.586Z,15.90
2018-02-21T17:17:57.950Z,14.83
2018-02-21T17:20:24.254Z,16.10
2018-02-21T17:22:50.634Z,15.27
2018-02-21T17:25:16.958Z,17.13
2018-02-21T17:27:43.227Z,18.90
2018-02-21T17:30:09.602Z,18.97
2018-02-21T17:32:35.913Z,17.67
2018-02-21T17:35:02.506Z,17.37
2018-02-21T17:37:28.930Z,16.10
2018-02-21T17:39:59.347Z,16.93
2018-02-21T17:42:25.905Z,16.70
2018-02-21T17:44:52.193Z,17.60
2018-02-21T17:47:18.871Z,18.43
2018-02-21T17:49:45.943Z,19.27
2018-02-21T17:52:12.228Z,18.97
2018-02-21T17:54:38.489Z,17.63
2018-02-21T17:57:04.839Z,18.27
2018-02-21T17:59:31.110Z,19.43
2018-02-21T18:01:57.474Z,19.80
2018-02-21T18:04:23.734Z,19.27
2018-02-21T18:06:50.021Z,18.17
2018-02-21T18:09:16.367Z,19.07
2018-02-21T18:11:43.527Z,19.60
2018-02-21T18:14:09.823Z,19.20
2018-02-21T18:16:36.136Z,20.67
2018-02-21T18:19:02.398Z,20.23
2018-02-21T18:21:34.660Z,19.80
2018-02-21T18:24:01.010Z,19.77
2018-02-21T18:26:28.058Z,18.20
2018-02-21T18:28:54.311Z,19.30
2018-02-21T18:31:20.597Z,21.50
2018-02-21T18:33:46.888Z,20.90
2018-02-21T18:36:13.969Z,20.90
2018-02-21T18:38:40.341Z,22.67
2018-02-21T18:41:07.409Z,20.50
2018-02-21T18:43:33.690Z,22.77
2018-02-21T18:45:59.978Z,24.30
2018-02-21T18:48:26.265Z,24.73
2018-02-21T18:50:52.556Z,23.83
2018-02-21T18:53:18.818Z,23.57
2018-02-21T18:55:45.099Z,24.07
2018-02-21T18:58:11.394Z,25.47
2018-02-21T19:00:37.733Z,24.23
2018-02-21T19:03:04.062Z,27.17
2018-02-21T19:05:30.322Z,25.13
2018-02-21T19:07:57.334Z,26.50
2018-02-21T19:10:23.609Z,28.17
2018-02-21T19:12:49.873Z,29.10
2018-02-21T19:15:16.159Z,28.10
2018-02-21T19:17:42.498Z,29.10
2018-02-21T19:20:08.877Z,28.27
2018-02-21T19:22:35.210Z,28.97
2018-02-21T19:25:01.505Z,31.50
2018-02-21T19:27:27.805Z,31.83
2018-02-21T19:29:54.091Z,31.10
2018-02-21T19:32:21.186Z,32.30
2018-02-21T19:34:47.484Z,31.80
2018-02-21T19:37:13.874Z,33.13
2018-02-21T19:39:40.245Z,33.30
2018-02-21T19:42:06.638Z,33.67
2018-02-21T19:44:32.903Z,32.57
2018-02-21T19:46:59.955Z,35.60
2018-02-21T19:49:26.226Z,34.97
2018-02-21T19:51:52.532Z,35.67
2018-02-21T19:54:18.842Z,35.50
2018-02-21T19:56:45.330Z,34.33
2018-02-21T19:59:11.643Z,36.73
2018-02-21T20:01:37.898Z,37.40
2018-02-21T20:04:04.219Z,36.13
2018-02-21T20:06:30.931Z,37.43
2018-02-21T20:08:57.218Z,36.27
2018-02-21T20:11:23.506Z,37.07
2018-02-21T20:13:50.604Z,36.77
2018-02-21T20:16:16.918Z,38.20
2018-02-21T20:18:43.200Z,37.90
2018-02-21T20:21:09.482Z,39.40
2018-02-21T20:23:35.747Z,39.40
2018-02-21T20:26:02.881Z,39.90
2018-02-21T20:28:29.163Z,37.57
2018-02-21T20:30:56.239Z,37.27
2018-02-21T20:33:22.574Z,38.20
2018-02-21T20:35:48.853Z,36.60
2018-02-21T20:38:16.845Z,37.07
2018-02-21T20:40:44.163Z,39.93
2018-02-21T20:43:10.562Z,35.80
2018-02-21T20:45:36.826Z,34.97
2018-02-21T20:48:03.089Z,38.17
2018-02-21T20:50:29.390Z,37.80
2018-02-21T20:52:55.738Z,38.17
2018-02-21T20:55:22.099Z,37.83
2018-02-21T20:57:49.162Z,37.73
2018-02-21T21:00:15.503Z,39.17
2018-02-21T21:02:41.845Z,39.03
2018-02-21T21:05:08.143Z,39.07
2018-02-21T21:07:34.442Z,39.53
2018-02-21T21:10:00.699Z,37.67
2018-02-21T21:12:27.010Z,39.30
2018-02-21T21:14:53.321Z,38.33
2018-02-21T21:17:19.841Z,38.53
2018-02-21T21:19:46.158Z,38.40
2018-02-21T21:22:12.451Z,38.63
2018-02-21T21:24:38.701Z,40.23
2018-02-21T21:27:05.003Z,36.47
2018-02-21T21:29:31.289Z,38.50
2018-02-21T21:31:57.586Z,39.07
2018-02-21T21:34:23.882Z,39.07
2018-02-21T21:36:50.903Z,36.53
2018-02-21T21:39:17.195Z,36.97
2018-02-21T21:41:43.513Z,37.40
2018-02-21T21:44:09.832Z,37.87
2018-02-21T21:46:36.243Z,39.53
2018-02-21T21:49:02.545Z,37.37
2018-02-21T21:51:28.846Z,36.03
2018-02-21T21:53:55.222Z,36.40
2018-02-21T21:56:22.344Z,38.10
2018-02-21T21:58:49.034Z,37.33
2018-02-21T22:01:15.308Z,36.27
2018-02-21T22:03:42.397Z,37.83
2018-02-21T22:06:08.669Z,37.63
2018-02-21T22:08:35.030Z,36.83
2018-02-21T22:11:02.491Z,35.20
2018-02-21T22:13:28.806Z,35.67
2018-02-21T22:15:55.094Z,35.63
2018-02-21T22:18:21.507Z,33.83
2018-02-21T22:20:49.089Z,32.10
2018-02-21T22:23:21.510Z,31.17
2018-02-21T22:25:47.942Z,35.83
2018-02-21T22:28:15.050Z,35.80
2018-02-21T22:30:42.639Z,35.87
2018-02-21T22:33:09.082Z,35.07
2018-02-21T22:35:35.318Z,33.73
2018-02-21T22:38:02.882Z,33.57
2018-02-21T22:40:29.198Z,31.47
2018-02-21T22:42:55.489Z,33.43
2018-02-21T22:45:21.875Z,33.00
2018-02-21T22:47:48.157Z,33.43
2018-02-21T22:50:14.466Z,32.97
2018-02-21T22:52:40.735Z,32.53
2018-02-21T22:55:07.774Z,33.20
2018-02-21T22:57:37.544Z,34.37
2018-02-21T23:00:03.853Z,34.23
2018-02-21T23:02:30.155Z,34.67
2018-02-21T23:04:56.432Z,35.73
2018-02-21T23:07:22.762Z,34.10
2018-02-21T23:09:49.045Z,35.60
2018-02-21T23:12:15.331Z,32.87
2018-02-21T23:14:41.648Z,36.70
2018-02-21T23:17:07.941Z,35.37
2018-02-21T23:19:34.217Z,35.27
2018-02-21T23:22:00.554Z,36.00
2018-02-21T23:24:26.906Z,35.90
2018-02-21T23:26:53.194Z,34.77
2018-02-21T23:29:19.466Z,32.33
2018-02-21T23:31:46.484Z,35.33
2018-02-21T23:34:12.773Z,34.47
2018-02-21T23:36:39.048Z,34.83
2018-02-21T23:39:05.373Z,34.73
2018-02-21T23:41:31.647Z,35.87
2018-02-21T23:43:57.934Z,34.67
2018-02-21T23:46:24.281Z,35.07
2018-02-21T23:48:51.289Z,35.13
2018-02-21T23:51:17.584Z,33.67
2018-02-21T23:53:43.866Z,33.50
2018-02-21T23:56:10.125Z,32.93
2018-02-21T23:58:36.410Z,35.17
